createdAt,value
2019-04-27T00:00:44.783Z,54.75
2019-04-27T00:03:35.009Z,55.55
2019-04-27T00:06:07.451Z,54.77
2019-04-27T00:08:38.730Z,55.60
2019-04-27T00:11:08.837Z,57.10
2019-04-27T00:13:40.403Z,48.90
2019-04-27T00:16:13.349Z,53.45
2019-04-27T00:18:49.819Z,52.93
2019-04-27T00:21:32.859Z,48.48
2019-04-27T00:23:59.283Z,51.58
2019-04-27T00:26:25.614Z,55.88
2019-04-27T00:28:53.644Z,53.08
2019-04-27T00:31:20.205Z,47.93
2019-04-27T00:33:47.022Z,45.00
2019-04-27T00:36:21.035Z,41.48
2019-04-27T00:39:05.311Z,49.98
2019-04-27T00:41:31.867Z,51.83
2019-04-27T00:43:58.119Z,51.18
2019-04-27T00:46:24.792Z,51.02
2019-04-27T00:48:51.386Z,50.30
2019-04-27T00:51:17.840Z,48.50
2019-04-27T00:53:44.252Z,46.50
2019-04-27T00:56:27.700Z,51.80
2019-04-27T00:59:13.735Z,47.85
2019-04-27T01:01:57.251Z,49.80
2019-04-27T01:04:25.540Z,48.55
2019-04-27T01:06:51.903Z,42.43
2019-04-27T01:09:18.470Z,44.55
2019-04-27T01:11:44.874Z,48.38
2019-04-27T01:14:12.766Z,52.43
2019-04-27T01:16:39.313Z,53.35
2019-04-27T01:19:05.679Z,51.40
2019-04-27T01:21:32.084Z,54.08
2019-04-27T01:23:58.946Z,55.17
2019-04-27T01:26:45.550Z,52.88
2019-04-27T01:29:13.745Z,55.08
2019-04-27T01:31:40.334Z,61.53
2019-04-27T01:34:06.815Z,60.95
2019-04-27T01:36:33.049Z,62.33
2019-04-27T01:38:59.609Z,59.95
2019-04-27T01:41:25.805Z,52.43
2019-04-27T01:43:52.095Z,58.50
2019-04-27T01:46:19.586Z,59.65
2019-04-27T01:48:49.042Z,65.67
2019-04-27T01:51:15.417Z,67.92
2019-04-27T01:53:41.916Z,74.40
2019-04-27T01:56:09.249Z,78.42
2019-04-27T01:58:39.239Z,71.12
2019-04-27T02:01:18.698Z,75.90
2019-04-27T02:03:48.761Z,76.30
2019-04-27T02:06:15.468Z,79.67
2019-04-27T02:08:41.932Z,85.20
2019-04-27T02:11:09.239Z,83.37
2019-04-27T02:13:36.824Z,81.90
2019-04-27T02:16:03.283Z,76.62
2019-04-27T02:18:37.505Z,75.60
2019-04-27T02:20:59.148Z,73.05
2019-04-27T02:23:25.824Z,73.62
2019-04-27T02:25:52.098Z,78.42
2019-04-27T02:28:29.524Z,73.78
2019-04-27T02:31:16.258Z,70.72
2019-04-27T02:33:47.324Z,73.28
2019-04-27T02:36:15.251Z,72.15
2019-04-27T02:38:41.847Z,66.95
2019-04-27T02:41:10.005Z,67.47
2019-04-27T02:43:49.751Z,59.40
2019-04-27T02:46:15.819Z,63.45
2019-04-27T02:48:56.007Z,61.68
2019-04-27T02:51:21.283Z,65.42
2019-04-27T02:53:54.852Z,59.90
2019-04-27T02:56:23.231Z,67.17
2019-04-27T02:58:49.848Z,58.28
2019-04-27T03:01:16.598Z,67.60
2019-04-27T03:03:42.955Z,63.70
2019-04-27T03:06:09.841Z,68.17
2019-04-27T03:08:36.436Z,73.30
2019-04-27T03:11:02.880Z,68.83
2019-04-27T03:13:31.035Z,73.00
2019-04-27T03:16:17.334Z,65.97
2019-04-27T03:18:46.414Z,75.35
2019-04-27T03:21:20.318Z,81.17
2019-04-27T03:23:50.124Z,75.35
2019-04-27T03:26:24.490Z,70.78
2019-04-27T03:28:53.006Z,62.58
2019-04-27T03:31:21.389Z,69.70
2019-04-27T03:33:54.758Z,60.88
2019-04-27T03:36:16.035Z,66.62
2019-04-27T03:38:42.663Z,65.03
2019-04-27T03:41:09.577Z,63.78
2019-04-27T03:43:36.017Z,63.95
2019-04-27T03:46:02.921Z,65.50
2019-04-27T03:48:29.613Z,61.30
2019-04-27T03:51:13.616Z,63.58
2019-04-27T03:53:49.737Z,63.58
2019-04-27T03:56:21.020Z,60.52
2019-04-27T03:58:51.935Z,61.13
2019-04-27T04:01:20.342Z,53.95
2019-04-27T04:03:46.544Z,59.63
2019-04-27T04:06:13.005Z,60.43
2019-04-27T04:08:39.876Z,63.50
2019-04-27T04:11:19.675Z,60.03
2019-04-27T04:13:49.382Z,61.55
2019-04-27T04:16:32.319Z,59.50
2019-04-27T04:19:06.339Z,48.50
2019-04-27T04:21:33.722Z,53.28
2019-04-27T04:24:01.134Z,45.73
2019-04-27T04:26:31.921Z,44.93
2019-04-27T04:28:56.007Z,47.05
2019-04-27T04:31:22.396Z,49.00
2019-04-27T04:33:49.282Z,47.62
2019-04-27T04:36:15.657Z,49.35
2019-04-27T04:38:44.042Z,46.18
2019-04-27T04:41:30.352Z,49.27
2019-04-27T04:44:01.512Z,47.93
2019-04-27T04:46:29.958Z,51.00
2019-04-27T04:49:00.034Z,44.93
2019-04-27T04:51:26.211Z,49.45
2019-04-27T04:53:52.700Z,50.67
2019-04-27T04:56:18.983Z,50.25
2019-04-27T04:58:45.438Z,50.88
2019-04-27T05:01:11.801Z,43.85
2019-04-27T05:03:38.857Z,48.65
2019-04-27T05:06:05.794Z,46.63
2019-04-27T05:08:32.043Z,45.60
2019-04-27T05:10:59.719Z,46.23
2019-04-27T05:13:26.321Z,40.78
2019-04-27T05:15:52.688Z,42.83
2019-04-27T05:18:19.339Z,27.00
2019-04-27T05:20:48.666Z,30.12
2019-04-27T05:23:15.362Z,30.57
2019-04-27T05:25:41.915Z,35.23
2019-04-27T05:28:09.764Z,33.15
2019-04-27T05:30:36.255Z,33.78
2019-04-27T05:33:02.659Z,47.58
2019-04-27T05:35:29.780Z,47.00
2019-04-27T05:37:56.148Z,47.43
2019-04-27T05:40:22.584Z,43.20
2019-04-27T05:42:55.112Z,45.10
2019-04-27T05:45:39.562Z,48.78
2019-04-27T05:48:09.405Z,47.00
2019-04-27T05:50:43.060Z,41.37
2019-04-27T05:53:04.472Z,44.30
2019-04-27T05:55:30.754Z,42.33
2019-04-27T05:57:59.019Z,39.90
2019-04-27T06:00:25.871Z,45.08
2019-04-27T06:02:52.213Z,46.00
2019-04-27T06:05:19.040Z,47.33
2019-04-27T06:07:45.289Z,42.33
2019-04-27T06:10:11.891Z,41.28
2019-04-27T06:12:39.600Z,46.15
2019-04-27T06:15:06.546Z,48.30
2019-04-27T06:17:33.266Z,48.73
2019-04-27T06:19:59.808Z,47.23
2019-04-27T06:22:26.143Z,46.83
2019-04-27T06:24:54.535Z,46.73
2019-04-27T06:27:21.103Z,42.48
2019-04-27T06:29:49.089Z,42.95
2019-04-27T06:32:15.617Z,47.65
2019-04-27T06:34:41.996Z,47.67
2019-04-27T06:37:09.548Z,44.93
2019-04-27T06:39:35.977Z,46.40
2019-04-27T06:42:15.623Z,46.55
2019-04-27T06:44:30.424Z,39.78
2019-04-27T06:46:56.881Z,48.02
2019-04-27T06:49:23.156Z,41.35
2019-04-27T06:51:49.884Z,43.33
2019-04-27T06:54:16.559Z,42.80
2019-04-27T06:56:42.945Z,41.90
2019-04-27T06:59:09.534Z,40.43
2019-04-27T07:01:36.013Z,39.25
2019-04-27T07:04:02.501Z,40.33
2019-04-27T07:06:28.881Z,38.00
2019-04-27T07:08:55.406Z,38.28
2019-04-27T07:11:21.876Z,33.45
2019-04-27T07:13:49.687Z,31.82
2019-04-27T07:16:16.228Z,31.97
2019-04-27T07:18:42.904Z,26.97
2019-04-27T07:21:16.949Z,25.10
2019-04-27T07:23:39.556Z,27.25
2019-04-27T07:26:05.824Z,27.52
2019-04-27T07:28:32.356Z,26.42
2019-04-27T07:30:58.958Z,25.62
2019-04-27T07:33:25.403Z,27.37
2019-04-27T07:35:51.688Z,25.72
2019-04-27T07:38:19.208Z,27.48
2019-04-27T07:40:45.638Z,29.45
2019-04-27T07:43:14.219Z,24.37
2019-04-27T07:45:41.786Z,26.48
2019-04-27T07:48:09.167Z,27.75
2019-04-27T07:50:35.995Z,24.98
2019-04-27T07:53:02.657Z,23.67
2019-04-27T07:55:29.057Z,23.15
2019-04-27T07:57:55.706Z,23.10
2019-04-27T08:00:22.965Z,24.07
2019-04-27T08:02:49.364Z,22.67
2019-04-27T08:05:15.901Z,23.77
2019-04-27T08:07:42.364Z,26.73
2019-04-27T08:10:09.707Z,22.87
2019-04-27T08:12:36.429Z,22.40
2019-04-27T08:15:04.483Z,22.40
2019-04-27T08:17:34.203Z,23.02
2019-04-27T08:20:03.438Z,22.70
2019-04-27T08:22:30.455Z,21.37
2019-04-27T08:24:57.013Z,21.30
2019-04-27T08:27:25.839Z,23.85
2019-04-27T08:29:58.343Z,22.20
2019-04-27T08:32:29.807Z,19.65
2019-04-27T08:34:56.251Z,19.50
2019-04-27T08:37:23.039Z,19.70
2019-04-27T08:39:51.116Z,18.95
2019-04-27T08:42:19.378Z,16.80
2019-04-27T08:44:46.077Z,19.45
2019-04-27T08:47:12.945Z,15.90
2019-04-27T08:49:39.596Z,16.10
2019-04-27T08:52:06.225Z,16.25
2019-04-27T08:54:32.936Z,15.90
2019-04-27T08:57:01.680Z,13.08
2019-04-27T08:59:29.560Z,12.93
2019-04-27T09:01:56.038Z,12.37
2019-04-27T09:04:22.371Z,11.73
2019-04-27T09:06:50.654Z,14.87
2019-04-27T09:09:34.208Z,11.05
2019-04-27T09:12:19.708Z,11.15
2019-04-27T09:14:49.474Z,10.03
2019-04-27T09:17:20.693Z,11.05
2019-04-27T09:19:51.850Z,7.10
2019-04-27T09:22:19.307Z,7.08
2019-04-27T09:24:46.828Z,9.83
2019-04-27T09:27:17.332Z,8.70
2019-04-27T09:29:44.048Z,8.90
2019-04-27T09:32:10.739Z,8.53
2019-04-27T09:34:37.127Z,7.95
2019-04-27T09:37:03.891Z,8.90
2019-04-27T09:39:30.554Z,7.20
2019-04-27T09:41:57.240Z,7.17
2019-04-27T09:44:23.800Z,8.68
2019-04-27T09:46:50.447Z,6.67
2019-04-27T09:49:17.034Z,6.40
2019-04-27T09:51:43.288Z,6.47
2019-04-27T09:54:09.740Z,6.00
2019-04-27T09:56:36.416Z,4.37
2019-04-27T09:59:03.113Z,6.78
2019-04-27T10:01:29.434Z,5.47
2019-04-27T10:03:56.683Z,4.70
2019-04-27T10:06:23.328Z,5.12
2019-04-27T10:08:49.804Z,5.95
2019-04-27T10:11:17.083Z,4.22
2019-04-27T10:13:43.703Z,3.77
2019-04-27T10:16:10.173Z,4.03
2019-04-27T10:18:36.843Z,5.72
2019-04-27T10:21:03.474Z,3.50
2019-04-27T10:23:29.776Z,3.87
2019-04-27T10:25:56.466Z,4.53
2019-04-27T10:28:22.734Z,5.03
2019-04-27T10:30:49.063Z,4.17
2019-04-27T10:33:16.149Z,5.03
2019-04-27T10:35:42.630Z,5.00
2019-04-27T10:38:08.937Z,5.97
2019-04-27T10:40:35.223Z,3.05
2019-04-27T10:43:01.479Z,4.22
2019-04-27T10:45:27.839Z,4.37
2019-04-27T10:47:56.155Z,3.15
2019-04-27T10:50:23.397Z,3.65
2019-04-27T10:52:53.809Z,3.95
2019-04-27T10:55:17.945Z,3.20
2019-04-27T10:57:45.161Z,2.85
2019-04-27T11:00:13.964Z,3.37
2019-04-27T11:02:40.358Z,6.12
2019-04-27T11:05:09.613Z,3.47
2019-04-27T11:07:37.686Z,6.17
2019-04-27T11:10:07.704Z,4.00
2019-04-27T11:12:34.430Z,4.60
2019-04-27T11:15:01.145Z,9.43
2019-04-27T11:17:27.569Z,4.40
2019-04-27T11:19:53.984Z,4.50
2019-04-27T11:22:20.357Z,2.95
2019-04-27T11:24:47.945Z,3.95
2019-04-27T11:27:14.423Z,3.95
2019-04-27T11:29:41.052Z,3.37
2019-04-27T11:32:07.892Z,4.17
2019-04-27T11:34:53.166Z,3.25
2019-04-27T11:37:21.407Z,2.83
2019-04-27T11:39:52.018Z,4.30
2019-04-27T11:42:18.500Z,4.10
2019-04-27T11:44:44.904Z,2.90
2019-04-27T11:47:11.624Z,2.70
2019-04-27T11:49:38.018Z,3.40
2019-04-27T11:52:05.821Z,4.35
2019-04-27T11:54:32.333Z,2.92
2019-04-27T11:56:59.199Z,3.87
2019-04-27T11:59:28.681Z,2.95
2019-04-27T12:01:55.929Z,3.33
2019-04-27T12:04:23.610Z,4.15
2019-04-27T12:06:50.416Z,3.83
2019-04-27T12:09:16.704Z,2.87
2019-04-27T12:11:43.092Z,2.12
2019-04-27T12:14:09.459Z,5.50
2019-04-27T12:16:36.258Z,2.95
2019-04-27T12:19:02.982Z,2.62
2019-04-27T12:21:29.259Z,2.33
2019-04-27T12:23:55.690Z,2.52
2019-04-27T12:26:26.945Z,2.62
2019-04-27T12:28:53.524Z,4.10
2019-04-27T12:31:21.780Z,2.85
2019-04-27T12:33:48.110Z,3.70
2019-04-27T12:36:17.569Z,2.50
2019-04-27T12:38:43.829Z,2.33
2019-04-27T12:41:10.277Z,2.15
2019-04-27T12:43:37.487Z,2.27
2019-04-27T12:46:05.812Z,2.55
2019-04-27T12:48:32.391Z,1.80
2019-04-27T12:50:58.879Z,2.08
2019-04-27T12:53:30.054Z,2.70
2019-04-27T12:56:00.988Z,3.87
2019-04-27T12:58:29.368Z,3.42
2019-04-27T13:01:00.420Z,2.75
2019-04-27T13:03:26.868Z,2.80
2019-04-27T13:05:53.211Z,2.52
2019-04-27T13:08:21.002Z,2.30
2019-04-27T13:10:47.469Z,1.87
2019-04-27T13:13:13.783Z,2.27
2019-04-27T13:15:40.397Z,3.33
2019-04-27T13:18:06.845Z,2.77
2019-04-27T13:20:33.596Z,2.92
2019-04-27T13:23:01.838Z,2.62
2019-04-27T13:25:28.370Z,5.30
2019-04-27T13:27:56.246Z,8.90
2019-04-27T13:30:23.598Z,13.10
2019-04-27T13:32:49.993Z,11.90
2019-04-27T13:35:16.334Z,11.43
2019-04-27T13:37:46.684Z,8.98
2019-04-27T13:40:17.042Z,8.43
2019-04-27T13:42:45.751Z,7.25
2019-04-27T13:45:21.076Z,6.12
2019-04-27T13:47:49.423Z,5.87
2019-04-27T13:50:17.711Z,6.67
2019-04-27T13:52:44.125Z,7.95
2019-04-27T13:55:10.663Z,5.95
2019-04-27T13:57:49.456Z,7.65
2019-04-27T14:00:06.930Z,5.05
2019-04-27T14:02:34.843Z,5.58
2019-04-27T14:05:01.625Z,5.08
2019-04-27T14:07:28.055Z,7.47
2019-04-27T14:09:54.564Z,4.28
2019-04-27T14:12:21.781Z,5.47
2019-04-27T14:14:48.977Z,5.67
2019-04-27T14:17:15.681Z,3.60
2019-04-27T14:19:42.270Z,5.05
2019-04-27T14:22:09.217Z,4.92
2019-04-27T14:24:39.745Z,5.05
2019-04-27T14:27:06.755Z,4.37
2019-04-27T14:29:33.568Z,10.63
2019-04-27T14:32:00.340Z,9.48
2019-04-27T14:34:28.359Z,4.67
2019-04-27T14:36:54.986Z,4.62
2019-04-27T14:39:21.791Z,5.28
2019-04-27T14:41:49.106Z,4.83
2019-04-27T14:44:15.540Z,5.33
2019-04-27T14:46:44.845Z,4.67
2019-04-27T14:49:11.383Z,5.67
2019-04-27T14:51:40.163Z,6.20
2019-04-27T14:54:09.109Z,3.50
2019-04-27T14:56:38.690Z,5.97
2019-04-27T14:59:07.296Z,5.50
2019-04-27T15:01:33.817Z,5.20
2019-04-27T15:04:00.063Z,6.90
2019-04-27T15:06:26.463Z,7.22
2019-04-27T15:08:52.889Z,8.70
2019-04-27T15:11:19.475Z,8.10
2019-04-27T15:13:48.713Z,6.67
2019-04-27T15:16:14.496Z,7.80
2019-04-27T15:18:46.239Z,9.48
2019-04-27T15:21:16.087Z,8.23
2019-04-27T15:23:48.323Z,8.23
2019-04-27T15:26:21.857Z,8.50
2019-04-27T15:28:49.550Z,7.47
2019-04-27T15:31:27.116Z,8.08
2019-04-27T15:34:02.218Z,7.08
2019-04-27T15:36:36.381Z,8.38
2019-04-27T15:39:22.547Z,6.50
2019-04-27T15:41:52.874Z,6.60
2019-04-27T15:44:19.148Z,8.50
2019-04-27T15:46:45.682Z,5.92
2019-04-27T15:49:12.025Z,5.53
2019-04-27T15:51:38.614Z,7.42
2019-04-27T15:54:05.324Z,5.72
2019-04-27T15:56:35.333Z,6.42
2019-04-27T15:59:01.033Z,6.25
2019-04-27T16:01:29.674Z,5.80
2019-04-27T16:03:55.602Z,5.83
2019-04-27T16:06:22.062Z,6.75
2019-04-27T16:08:49.157Z,7.10
2019-04-27T16:11:19.041Z,6.72
2019-04-27T16:13:44.356Z,6.75
2019-04-27T16:16:10.766Z,6.85
2019-04-27T16:18:38.796Z,8.05
2019-04-27T16:21:07.134Z,7.85
2019-04-27T16:23:40.075Z,6.05
2019-04-27T16:26:11.314Z,6.60
2019-04-27T16:28:33.931Z,7.78
2019-04-27T16:31:00.577Z,6.08
2019-04-27T16:33:28.782Z,7.80
2019-04-27T16:36:00.300Z,8.55
2019-04-27T16:38:26.717Z,6.58
2019-04-27T16:40:54.636Z,8.53
2019-04-27T16:43:23.865Z,7.62
2019-04-27T16:45:50.146Z,8.93
2019-04-27T16:48:18.446Z,9.18
2019-04-27T16:50:44.607Z,8.98
2019-04-27T16:53:12.620Z,8.98
2019-04-27T16:55:39.178Z,9.10
2019-04-27T16:58:11.097Z,9.50
2019-04-27T17:00:33.997Z,9.58
2019-04-27T17:03:02.832Z,10.60
2019-04-27T17:05:34.475Z,9.28
2019-04-27T17:07:57.033Z,8.85
2019-04-27T17:10:26.475Z,9.28
2019-04-27T17:12:51.765Z,7.87
2019-04-27T17:15:36.759Z,7.10
2019-04-27T17:18:24.401Z,6.17
2019-04-27T17:20:52.634Z,5.58
2019-04-27T17:23:27.267Z,7.08
2019-04-27T17:26:05.938Z,6.75
2019-04-27T17:28:29.008Z,6.35
2019-04-27T17:30:55.879Z,6.28
2019-04-27T17:33:39.237Z,5.35
2019-04-27T17:36:05.821Z,5.00
2019-04-27T17:38:32.319Z,7.15
2019-04-27T17:40:58.798Z,6.60
2019-04-27T17:43:25.249Z,7.60
2019-04-27T17:45:51.794Z,6.70
2019-04-27T17:48:18.476Z,7.00
2019-04-27T17:50:44.996Z,8.40
2019-04-27T17:53:12.119Z,8.25
2019-04-27T17:55:38.391Z,7.85
2019-04-27T17:58:05.388Z,9.05
2019-04-27T18:00:40.967Z,7.90
2019-04-27T18:03:01.228Z,9.95
2019-04-27T18:05:28.506Z,11.75
2019-04-27T18:07:55.130Z,11.45
2019-04-27T18:10:24.302Z,13.08
2019-04-27T18:12:50.137Z,12.13
2019-04-27T18:15:16.695Z,11.33
2019-04-27T18:17:49.939Z,10.40
2019-04-27T18:20:18.404Z,7.83
2019-04-27T18:22:49.687Z,7.62
2019-04-27T18:25:16.317Z,5.97
2019-04-27T18:27:50.279Z,6.97
2019-04-27T18:30:38.732Z,6.97
2019-04-27T18:33:05.444Z,5.05
2019-04-27T18:35:31.796Z,5.90
2019-04-27T18:38:01.656Z,8.90
2019-04-27T18:40:32.083Z,5.58
2019-04-27T18:42:54.501Z,6.25
2019-04-27T18:45:22.052Z,5.97
2019-04-27T18:47:51.295Z,6.22
2019-04-27T18:50:25.467Z,6.65
2019-04-27T18:52:53.770Z,6.17
2019-04-27T18:55:20.980Z,6.90
2019-04-27T18:57:51.027Z,5.60
2019-04-27T19:00:20.123Z,7.25
2019-04-27T19:02:50.356Z,5.97
2019-04-27T19:05:18.721Z,5.37
2019-04-27T19:07:45.087Z,5.40
2019-04-27T19:10:11.639Z,4.95
2019-04-27T19:12:40.448Z,5.75
2019-04-27T19:15:08.327Z,5.12
2019-04-27T19:17:38.498Z,5.90
2019-04-27T19:20:09.892Z,5.58
2019-04-27T19:22:35.885Z,5.60
2019-04-27T19:25:03.349Z,5.25
2019-04-27T19:27:39.451Z,7.15
2019-04-27T19:30:14.595Z,5.58
2019-04-27T19:32:41.074Z,5.65
2019-04-27T19:35:07.526Z,7.40
2019-04-27T19:37:34.290Z,5.70
2019-04-27T19:40:00.794Z,6.05
2019-04-27T19:42:28.578Z,9.20
2019-04-27T19:44:55.097Z,7.20
2019-04-27T19:47:22.210Z,4.87
2019-04-27T19:49:48.501Z,4.67
2019-04-27T19:52:14.997Z,5.00
2019-04-27T19:54:41.296Z,6.42
2019-04-27T19:57:09.136Z,5.15
2019-04-27T19:59:38.060Z,6.17
2019-04-27T20:02:06.508Z,5.28
2019-04-27T20:04:34.636Z,4.85
2019-04-27T20:07:01.148Z,5.03
2019-04-27T20:09:32.287Z,5.72
2019-04-27T20:12:00.662Z,5.62
2019-04-27T20:14:27.017Z,6.28
2019-04-27T20:16:53.527Z,6.50
2019-04-27T20:19:21.567Z,6.62
2019-04-27T20:21:48.055Z,7.35
2019-04-27T20:24:14.332Z,7.45
2019-04-27T20:26:40.521Z,7.30
2019-04-27T20:29:07.012Z,6.08
2019-04-27T20:31:33.428Z,6.25
2019-04-27T20:33:59.698Z,6.55
2019-04-27T20:36:27.175Z,7.50
2019-04-27T20:38:53.583Z,6.85
2019-04-27T20:41:21.718Z,5.62
2019-04-27T20:43:47.970Z,5.62
2019-04-27T20:46:14.487Z,6.22
2019-04-27T20:48:41.390Z,6.80
2019-04-27T20:51:07.956Z,6.80
2019-04-27T20:53:51.798Z,7.72
2019-04-27T20:56:20.285Z,6.95
2019-04-27T20:58:46.812Z,7.22
2019-04-27T21:01:13.094Z,6.35
2019-04-27T21:03:51.170Z,5.70
2019-04-27T21:06:28.691Z,7.25
2019-04-27T21:08:55.054Z,6.40
2019-04-27T21:11:21.568Z,6.03
2019-04-27T21:13:47.939Z,6.45
2019-04-27T21:16:14.238Z,6.83
2019-04-27T21:18:41.967Z,6.65
2019-04-27T21:21:08.498Z,5.40
2019-04-27T21:23:34.866Z,5.47
2019-04-27T21:26:02.075Z,7.20
2019-04-27T21:28:28.644Z,6.20
2019-04-27T21:30:55.002Z,6.60
2019-04-27T21:33:21.633Z,5.62
2019-04-27T21:35:51.267Z,5.90
2019-04-27T21:38:17.880Z,7.05
2019-04-27T21:40:44.831Z,7.85
2019-04-27T21:43:11.453Z,5.83
2019-04-27T21:45:37.811Z,5.40
2019-04-27T21:48:04.090Z,7.67
2019-04-27T21:50:31.427Z,10.50
2019-04-27T21:53:15.671Z,6.87
2019-04-27T21:55:42.472Z,6.20
2019-04-27T21:58:08.728Z,7.53
2019-04-27T22:00:38.013Z,6.55
2019-04-27T22:03:04.696Z,6.62
2019-04-27T22:05:31.495Z,6.95
2019-04-27T22:07:58.019Z,8.50
2019-04-27T22:10:24.402Z,6.22
2019-04-27T22:12:51.817Z,6.85
2019-04-27T22:15:18.341Z,5.87
2019-04-27T22:17:44.781Z,5.95
2019-04-27T22:20:11.852Z,7.62
2019-04-27T22:22:41.412Z,8.08
2019-04-27T22:25:11.602Z,6.40
2019-04-27T22:27:38.193Z,7.55
2019-04-27T22:30:05.647Z,7.53
2019-04-27T22:32:32.798Z,8.85
2019-04-27T22:34:59.314Z,6.83
2019-04-27T22:37:25.698Z,6.80
2019-04-27T22:39:56.642Z,6.87
2019-04-27T22:42:41.591Z,7.37
2019-04-27T22:45:10.260Z,7.47
2019-04-27T22:47:36.526Z,8.38
2019-04-27T22:50:05.090Z,6.55
2019-04-27T22:52:31.332Z,7.35
2019-04-27T22:54:58.059Z,7.25
2019-04-27T22:57:26.504Z,7.90
2019-04-27T23:00:03.913Z,5.97
2019-04-27T23:02:35.097Z,10.18
2019-04-27T23:05:02.469Z,8.23
2019-04-27T23:07:31.554Z,11.88
2019-04-27T23:09:58.141Z,9.33
2019-04-27T23:12:24.575Z,9.63
2019-04-27T23:14:50.848Z,8.93
2019-04-27T23:17:19.214Z,12.37
2019-04-27T23:19:45.745Z,9.88
2019-04-27T23:22:12.120Z,13.68
2019-04-27T23:24:38.481Z,13.13
2019-04-27T23:27:04.935Z,10.85
2019-04-27T23:29:33.184Z,11.43
2019-04-27T23:32:01.664Z,12.07
2019-04-27T23:34:28.009Z,10.60
2019-04-27T23:36:54.270Z,12.15
2019-04-27T23:39:20.721Z,11.10
2019-04-27T23:41:47.080Z,11.00
2019-04-27T23:44:13.480Z,12.00
2019-04-27T23:46:39.797Z,12.80
2019-04-27T23:49:06.192Z,12.23
2019-04-27T23:51:46.286Z,12.98
2019-04-27T23:54:13.831Z,12.90
2019-04-27T23:56:41.919Z,14.40
2019-04-27T23:59:08.310Z,13.98
